Hertfordshire — ZDJS5 — position and weather

sailwx.info

Track history (hours):
 
Tides and Currents Weather Stations Pressure Air Temp Water Temp Dewpoint Dewpoint Depression Visibility Wind Speed Wind Dir Waves Ship Positions

Hertfordshire

Last reported at 2014-Oct-25 13:33 UTC. Time now 2014-Oct-25 14:33 UTC.
Position N 56°06' W 002°49'.

Length 83 m; draft 4.6 m.

Type: Cargo ship. MMSI: 236563000.

Date/timePositionNaut miles runAvg speedWind from/ knotsBaromVisibWave heightAir tempDewpointWater temp
2014-Oct-25 13:33N 56°06' W 002°49'9 9.4
2014-Oct-25 12:33N 56°04' W 002°33'1010.2
2014-Oct-25 11:33N 55°59' W 002°17'1111.0
2014-Oct-25 10:31N 55°53' W 001°59'5510.9
2014-Oct-25 05:30N 55°05' W 001°14'9 9.6
2014-Oct-25 04:33N 54°57' W 001°07'9 9.3
2014-Oct-25 03:33N 54°49' W 000°56'9 9.2
2014-Oct-25 02:33N 54°42' W 000°46'12 9.5
2014-Oct-25 01:17N 54°33' W 000°33'710.3
2014-Oct-25 00:33N 54°27' W 000°24'1110.9
2014-Oct-24 23:33N 54°19' W 000°13'1211.9
2014-Oct-24 22:33N 54°09' W 000°01'1212.0
2014-Oct-24 21:33N 53°59' E 000°10'1211.5
2014-Oct-24 20:33N 53°49' E 000°20'1111.0
2014-Oct-24 19:33N 53°39' E 000°28'10 9.7
2014-Oct-24 18:32N 53°30' E 000°35'36 9.1
2014-Oct-24 14:33N 53°01' E 001°11'1212.1
2014-Oct-24 13:33N 52°55' E 001°28'1312.5
2014-Oct-24 12:33N 52°48' E 001°45'10 9.9
2014-Oct-24 11:33N 52°40' E 001°54'1010.1
2014-Oct-24 10:33N 52°30' E 001°53'8 8.3
2014-Oct-24 09:33N 52°21' E 001°52'8 7.9
2014-Oct-24 08:33N 52°13' E 001°52'8 7.9
2014-Oct-24 07:33N 52°06' E 001°50'8 8.4
2014-Oct-24 06:33N 51°57' E 001°49'8 8.4
2014-Oct-24 05:33N 51°50' E 001°43'1110.6
2014-Oct-24 04:33N 51°46' E 001°28'1211.8
2014-Oct-24 03:33N 51°37' E 001°14'1212.4
2014-Oct-24 02:33N 51°31' E 000°57'1211.6
2014-Oct-24 01:33N 51°30' E 000°39'9 9.1
2014-Oct-24 00:33N 51°27' E 000°25'3 3.2
2014-Oct-23 23:33N 51°28' E 000°20'0 0.0
2014-Oct-23 22:33N 51°28' E 000°20'0 0.0
2014-Oct-23 21:33N 51°28' E 000°20'0 0.0
2014-Oct-23 20:33N 51°28' E 000°20'0 0.0
2014-Oct-23 19:33N 51°28' E 000°20'0 0.0
2014-Oct-23 18:33N 51°28' E 000°20'0 0.0
2014-Oct-23 17:33N 51°28' E 000°20'0 0.0
2014-Oct-23 16:33N 51°28' E 000°20'0 0.0
2014-Oct-23 15:33N 51°28' E 000°20'0 0.0
2014-Oct-23 14:33N 51°28' E 000°20'0 0.0
2014-Oct-23 13:33N 51°28' E 000°20'0 0.0
2014-Oct-23 12:33N 51°28' E 000°20'0 0.1
2014-Oct-23 11:33N 51°28' E 000°20'5 4.9
2014-Oct-23 10:33N 51°29' E 000°28'9 9.4
2014-Oct-23 09:33N 51°30' E 000°43'1010.0
2014-Oct-23 08:33N 51°30' E 000°59'0 0.3
2014-Oct-23 07:26N 51°31' E 000°59'0 0.1
2014-Oct-23 06:32N 51°31' E 000°59'0 0.0
2014-Oct-23 05:29N 51°31' E 000°59'0 0.0
2014-Oct-23 04:32N 51°31' E 000°59'0 0.0
2014-Oct-23 03:32N 51°31' E 000°59'0 0.0
2014-Oct-23 02:32N 51°31' E 000°59'0 0.0
2014-Oct-23 01:32N 51°31' E 000°59'0 0.0
2014-Oct-23 00:32N 51°31' E 000°59'0 0.1
2014-Oct-22 23:34N 51°31' E 000°59'1211.6
2014-Oct-22 22:34N 51°29' E 001°18'1212.2
2014-Oct-22 21:34N 51°29' E 001°37'1110.6
2014-Oct-22 20:33N 51°28' E 001°54'1010.1
2014-Oct-22 19:33N 51°23' E 002°09'1010.1
2014-Oct-22 18:33N 51°22' E 002°25'1111.1
2014-Oct-22 17:33N 51°22' E 002°42'1110.8
2014-Oct-22 16:34N 51°22' E 002°60'1211.6
2014-Oct-22 15:33N 51°24' E 003°18'1111.5
2014-Oct-22 14:33N 51°26' E 003°36'10 9.8
2014-Oct-22 13:33N 51°22' E 003°51'8 7.6
2014-Oct-22 12:34N 51°26' E 004°02'7 7.1
2014-Oct-22 11:33N 51°23' E 004°13'4 3.9
2014-Oct-22 10:33N 51°21' E 004°17'5 4.9
2014-Oct-22 09:33N 51°17' E 004°21'0 0.0
2014-Oct-22 08:30N 51°17' E 004°21'0 0.0
2014-Oct-22 07:33N 51°17' E 004°21'0 0.0
2014-Oct-22 06:30N 51°17' E 004°21'0 0.0
2014-Oct-22 05:33N 51°17' E 004°21'0 0.0
2014-Oct-22 04:33N 51°17' E 004°21'0 0.0
2014-Oct-22 03:30N 51°17' E 004°21'0 0.0
2014-Oct-22 02:30N 51°17' E 004°21'0 0.0
2014-Oct-22 01:33N 51°17' E 004°21'0 0.0
2014-Oct-22 00:33N 51°17' E 004°21'0 0.0
2014-Oct-21 23:33N 51°17' E 004°21'0 0.0
2014-Oct-21 22:27N 51°17' E 004°21'0 0.0
2014-Oct-21 21:33N 51°17' E 004°21'0 0.0
2014-Oct-21 20:30N 51°17' E 004°21'0 0.0
2014-Oct-21 19:33N 51°17' E 004°21'0 0.0
2014-Oct-21 18:33N 51°17' E 004°21'0 0.0
2014-Oct-21 17:33N 51°17' E 004°21'0 0.0
2014-Oct-21 16:33N 51°17' E 004°21'0 0.0
2014-Oct-21 15:33N 51°17' E 004°21'0 0.0
2014-Oct-21 14:33N 51°17' E 004°21'0 0.0
2014-Oct-21 13:33N 51°17' E 004°21'0 0.0
2014-Oct-21 12:33N 51°17' E 004°21'0 0.0
2014-Oct-21 11:33N 51°17' E 004°21'0 0.0
2014-Oct-21 10:33N 51°17' E 004°21'0 0.0
2014-Oct-21 09:33N 51°17' E 004°21'0 0.0
2014-Oct-21 08:33N 51°17' E 004°21'0 0.0
2014-Oct-21 07:33N 51°17' E 004°21'0 0.0
2014-Oct-21 06:33N 51°17' E 004°21'0 0.0
2014-Oct-21 05:33N 51°17' E 004°21'0 0.0
2014-Oct-21 04:33N 51°17' E 004°21'0 0.0
2014-Oct-21 03:30N 51°17' E 004°21'0 0.0
2014-Oct-21 02:33N 51°17' E 004°21'0 0.0
2014-Oct-21 01:30N 51°17' E 004°21'0 0.0
2014-Oct-21 00:33N 51°17' E 004°21'0 0.0
2014-Oct-20 23:33N 51°17' E 004°21'0 0.0
2014-Oct-20 22:33N 51°17' E 004°21'0 0.0
2014-Oct-20 21:30N 51°17' E 004°21'0 0.0
2014-Oct-20 20:33N 51°17' E 004°21'0 0.2
2014-Oct-20 19:30N 51°17' E 004°21'0 0.0
2014-Oct-20 18:33N 51°17' E 004°21'0 0.0
2014-Oct-20 17:33N 51°17' E 004°21'0 0.0
2014-Oct-20 16:33N 51°17' E 004°21'0 0.0
2014-Oct-20 15:33N 51°17' E 004°21'0 0.0
2014-Oct-20 14:33N 51°17' E 004°21'0 0.0
2014-Oct-20 13:33N 51°17' E 004°21'0 0.0
2014-Oct-20 12:33N 51°17' E 004°21'0 0.0
2014-Oct-20 11:33N 51°17' E 004°21'0 0.0
2014-Oct-20 10:30N 51°17' E 004°21'0 0.0
2014-Oct-20 09:33N 51°17' E 004°21'0 0.0
2014-Oct-20 08:33N 51°17' E 004°21'0 0.0
2014-Oct-20 07:33N 51°17' E 004°21'0 0.0
2014-Oct-20 06:33N 51°17' E 004°21'0 0.0
2014-Oct-20 05:34N 51°17' E 004°21'0 0.0
2014-Oct-20 04:33N 51°17' E 004°21'0 0.0
2014-Oct-20 03:34N 51°17' E 004°21'0 0.0
2014-Oct-20 02:30N 51°17' E 004°21'0 0.0
2014-Oct-20 01:33N 51°17' E 004°21'0 0.0
2014-Oct-20 00:33N 51°17' E 004°21'0 0.0
2014-Oct-19 23:33N 51°17' E 004°21'0 0.0
2014-Oct-19 22:33N 51°17' E 004°21'0 0.0
2014-Oct-19 21:33N 51°17' E 004°21'0 0.0
2014-Oct-19 20:33N 51°17' E 004°21'0 0.0
2014-Oct-19 19:33N 51°17' E 004°21'0 0.0
2014-Oct-19 18:33N 51°17' E 004°21'0 0.0
2014-Oct-19 17:33N 51°17' E 004°21'0 0.0
2014-Oct-19 16:33N 51°17' E 004°21'0 0.0
2014-Oct-19 15:33N 51°17' E 004°21'0 0.0
2014-Oct-19 14:33N 51°17' E 004°21'0 0.0
2014-Oct-19 13:33N 51°17' E 004°21'0 0.0
2014-Oct-19 12:33N 51°17' E 004°21'0 0.0
2014-Oct-19 11:30N 51°17' E 004°21'0 0.0
2014-Oct-19 10:33N 51°17' E 004°21'0 0.0
2014-Oct-19 09:33N 51°17' E 004°21'0 0.0
2014-Oct-19 08:33N 51°17' E 004°21'0 0.0
2014-Oct-19 07:33N 51°17' E 004°21'0 0.0
2014-Oct-19 06:33N 51°17' E 004°21'0 0.0
2014-Oct-19 05:33N 51°17' E 004°21'0 0.0
2014-Oct-19 04:33N 51°17' E 004°21'0 0.0
2014-Oct-19 03:33N 51°17' E 004°21'0 0.0
2014-Oct-19 02:33N 51°17' E 004°21'0 0.0
2014-Oct-19 01:33N 51°17' E 004°21'0 0.0
2014-Oct-19 00:33N 51°17' E 004°21'0 0.0
2014-Oct-18 23:33N 51°17' E 004°21'0 0.0
2014-Oct-18 22:33N 51°17' E 004°21'0 0.0
2014-Oct-18 21:33N 51°17' E 004°21'0 0.0
2014-Oct-18 20:33N 51°17' E 004°21'0 0.0
2014-Oct-18 19:33N 51°17' E 004°21'0 0.0
2014-Oct-18 18:33N 51°17' E 004°21'0 0.0
2014-Oct-18 17:33N 51°17' E 004°21'0 0.0
2014-Oct-18 16:33N 51°17' E 004°21'0 0.0
2014-Oct-18 15:33N 51°17' E 004°21'0 0.0
2014-Oct-18 14:33N 51°17' E 004°21'0 0.0
2014-Oct-18 13:30N 51°17' E 004°21'0 0.0
2014-Oct-18 12:33N 51°17' E 004°21'0 0.0
2014-Oct-18 11:33N 51°17' E 004°21'0 0.0
2014-Oct-18 10:33N 51°17' E 004°21'0 0.0
2014-Oct-18 09:33N 51°17' E 004°21'0 0.0
2014-Oct-18 08:33N 51°17' E 004°21'0 0.0
2014-Oct-18 07:33N 51°17' E 004°21'0 0.0
2014-Oct-18 06:33N 51°17' E 004°21'0 0.0
2014-Oct-18 05:33N 51°17' E 004°21'0 0.0
2014-Oct-18 04:33N 51°17' E 004°21'0 0.0
2014-Oct-18 03:27N 51°17' E 004°21'0 0.0
2014-Oct-18 02:33N 51°17' E 004°21'0 0.0
2014-Oct-18 01:33N 51°17' E 004°21'0 0.0
2014-Oct-18 00:33N 51°17' E 004°21'0 0.0
2014-Oct-17 23:33N 51°17' E 004°21'0 0.0
2014-Oct-17 22:33N 51°17' E 004°21'0 0.0
2014-Oct-17 21:33N 51°17' E 004°21'0 0.0
2014-Oct-17 20:33N 51°17' E 004°21'0 0.0
2014-Oct-17 19:33N 51°17' E 004°21'0 0.0
2014-Oct-17 18:30N 51°17' E 004°21'0 0.0
2014-Oct-17 17:33N 51°17' E 004°21'0 0.0
2014-Oct-17 16:33N 51°17' E 004°21'0 0.0
2014-Oct-17 15:33N 51°17' E 004°21'0 0.0
2014-Oct-17 14:30N 51°17' E 004°21'0 0.0
2014-Oct-17 13:30N 51°17' E 004°21'0 0.0
2014-Oct-17 12:33N 51°17' E 004°21'0 0.0
2014-Oct-17 11:30N 51°17' E 004°21'0 0.0
2014-Oct-17 10:33N 51°17' E 004°21'0 0.0
2014-Oct-17 09:33N 51°17' E 004°21'0 0.0
2014-Oct-17 08:33N 51°17' E 004°21'0 0.0
2014-Oct-17 07:33N 51°17' E 004°21'0 0.0
2014-Oct-17 06:33N 51°17' E 004°21'0 0.0
2014-Oct-17 05:33N 51°17' E 004°21'0 0.0
2014-Oct-17 04:33N 51°17' E 004°21'0 0.0
2014-Oct-17 03:33N 51°17' E 004°21'0 0.0
2014-Oct-17 02:33N 51°17' E 004°21'0 0.0
2014-Oct-17 01:33N 51°17' E 004°21'0 0.0
2014-Oct-17 00:33N 51°17' E 004°21'0 0.0
2014-Oct-16 23:33N 51°17' E 004°21'0 0.0
2014-Oct-16 22:33N 51°17' E 004°21'0 0.0
2014-Oct-16 21:33N 51°17' E 004°21'0 0.0
2014-Oct-16 20:33N 51°17' E 004°21'0 0.0
2014-Oct-16 19:33N 51°17' E 004°21'0 0.0
2014-Oct-16 18:33N 51°17' E 004°21'0 0.0
2014-Oct-16 17:33N 51°17' E 004°21'0 0.0
2014-Oct-16 16:30N 51°17' E 004°21'0 0.0
2014-Oct-16 15:33N 51°17' E 004°21'0 0.0
2014-Oct-16 14:33N 51°17' E 004°21'0 0.0
2014-Oct-16 13:33N 51°17' E 004°21'0 0.0
2014-Oct-16 12:33N 51°17' E 004°21'0 0.0
2014-Oct-16 11:33N 51°17' E 004°21'0 0.0
2014-Oct-16 10:33N 51°17' E 004°21'0 0.0
2014-Oct-16 09:33N 51°17' E 004°21'0 0.0
2014-Oct-16 08:33N 51°17' E 004°21'0 0.0
2014-Oct-16 07:33N 51°17' E 004°21'0 0.0
2014-Oct-16 06:30N 51°17' E 004°21'0 0.0
2014-Oct-16 05:33N 51°17' E 004°21'0 0.0
2014-Oct-16 04:33N 51°17' E 004°21'0 0.0
2014-Oct-16 03:33N 51°17' E 004°21'0 0.0
2014-Oct-16 02:33N 51°17' E 004°21'0 0.0
2014-Oct-16 01:33N 51°17' E 004°21'0 0.0
2014-Oct-16 00:33N 51°17' E 004°21'0 0.0
2014-Oct-15 23:33N 51°17' E 004°21'0 0.0
2014-Oct-15 22:33N 51°17' E 004°21'0 0.0
2014-Oct-15 21:33N 51°17' E 004°21'0 0.0
2014-Oct-15 20:33N 51°17' E 004°21'0 0.0
2014-Oct-15 19:33N 51°17' E 004°21'0 0.0
2014-Oct-15 18:33N 51°17' E 004°21'0 0.0
2014-Oct-15 17:30N 51°17' E 004°21'0 0.0
2014-Oct-15 16:33N 51°17' E 004°21'0 0.0
2014-Oct-15 15:30N 51°17' E 004°21'0 0.0
2014-Oct-15 14:33N 51°17' E 004°21'  
Track history (hours):
 
Tides and Currents Weather Stations Pressure Air Temp Water Temp Dewpoint Dewpoint Depression Visibility Wind Speed Wind Dir Waves Ship Positions

Hertfordshire

Last reported at 2014-Oct-25 13:33 UTC. Time now 2014-Oct-25 14:33 UTC.
Position N 56°06' W 002°49'.

Length 83 m; draft 4.6 m.

Type: Cargo ship. MMSI: 236563000.

Date/timePositionNaut miles runAvg speedWind from/ knotsBaromVisibWave heightAir tempDewpointWater temp
2014-Oct-25 13:33N 56°06' W 002°49'9 9.4
2014-Oct-25 12:33N 56°04' W 002°33'1010.2
2014-Oct-25 11:33N 55°59' W 002°17'1111.0
2014-Oct-25 10:31N 55°53' W 001°59'5510.9
2014-Oct-25 05:30N 55°05' W 001°14'9 9.6
2014-Oct-25 04:33N 54°57' W 001°07'9 9.3
2014-Oct-25 03:33N 54°49' W 000°56'9 9.2
2014-Oct-25 02:33N 54°42' W 000°46'12 9.5
2014-Oct-25 01:17N 54°33' W 000°33'710.3
2014-Oct-25 00:33N 54°27' W 000°24'1110.9
2014-Oct-24 23:33N 54°19' W 000°13'1211.9
2014-Oct-24 22:33N 54°09' W 000°01'1212.0
2014-Oct-24 21:33N 53°59' E 000°10'1211.5
2014-Oct-24 20:33N 53°49' E 000°20'1111.0
2014-Oct-24 19:33N 53°39' E 000°28'10 9.7
2014-Oct-24 18:32N 53°30' E 000°35'36 9.1
2014-Oct-24 14:33N 53°01' E 001°11'1212.1
2014-Oct-24 13:33N 52°55' E 001°28'1312.5
2014-Oct-24 12:33N 52°48' E 001°45'10 9.9
2014-Oct-24 11:33N 52°40' E 001°54'1010.1
2014-Oct-24 10:33N 52°30' E 001°53'8 8.3
2014-Oct-24 09:33N 52°21' E 001°52'8 7.9
2014-Oct-24 08:33N 52°13' E 001°52'8 7.9
2014-Oct-24 07:33N 52°06' E 001°50'8 8.4
2014-Oct-24 06:33N 51°57' E 001°49'8 8.4
2014-Oct-24 05:33N 51°50' E 001°43'1110.6
2014-Oct-24 04:33N 51°46' E 001°28'1211.8
2014-Oct-24 03:33N 51°37' E 001°14'1212.4
2014-Oct-24 02:33N 51°31' E 000°57'1211.6
2014-Oct-24 01:33N 51°30' E 000°39'9 9.1
2014-Oct-24 00:33N 51°27' E 000°25'3 3.2
2014-Oct-23 23:33N 51°28' E 000°20'0 0.0
2014-Oct-23 22:33N 51°28' E 000°20'0 0.0
2014-Oct-23 21:33N 51°28' E 000°20'0 0.0
2014-Oct-23 20:33N 51°28' E 000°20'0 0.0
2014-Oct-23 19:33N 51°28' E 000°20'0 0.0
2014-Oct-23 18:33N 51°28' E 000°20'0 0.0
2014-Oct-23 17:33N 51°28' E 000°20'0 0.0
2014-Oct-23 16:33N 51°28' E 000°20'0 0.0
2014-Oct-23 15:33N 51°28' E 000°20'0 0.0
2014-Oct-23 14:33N 51°28' E 000°20'0 0.0
2014-Oct-23 13:33N 51°28' E 000°20'0 0.0
2014-Oct-23 12:33N 51°28' E 000°20'0 0.1
2014-Oct-23 11:33N 51°28' E 000°20'5 4.9
2014-Oct-23 10:33N 51°29' E 000°28'9 9.4
2014-Oct-23 09:33N 51°30' E 000°43'1010.0
2014-Oct-23 08:33N 51°30' E 000°59'0 0.3
2014-Oct-23 07:26N 51°31' E 000°59'0 0.1
2014-Oct-23 06:32N 51°31' E 000°59'0 0.0
2014-Oct-23 05:29N 51°31' E 000°59'0 0.0
2014-Oct-23 04:32N 51°31' E 000°59'0 0.0
2014-Oct-23 03:32N 51°31' E 000°59'0 0.0
2014-Oct-23 02:32N 51°31' E 000°59'0 0.0
2014-Oct-23 01:32N 51°31' E 000°59'0 0.0
2014-Oct-23 00:32N 51°31' E 000°59'0 0.1
2014-Oct-22 23:34N 51°31' E 000°59'1211.6
2014-Oct-22 22:34N 51°29' E 001°18'1212.2
2014-Oct-22 21:34N 51°29' E 001°37'1110.6
2014-Oct-22 20:33N 51°28' E 001°54'1010.1
2014-Oct-22 19:33N 51°23' E 002°09'1010.1
2014-Oct-22 18:33N 51°22' E 002°25'1111.1
2014-Oct-22 17:33N 51°22' E 002°42'1110.8
2014-Oct-22 16:34N 51°22' E 002°60'1211.6
2014-Oct-22 15:33N 51°24' E 003°18'1111.5
2014-Oct-22 14:33N 51°26' E 003°36'10 9.8
2014-Oct-22 13:33N 51°22' E 003°51'8 7.6
2014-Oct-22 12:34N 51°26' E 004°02'7 7.1
2014-Oct-22 11:33N 51°23' E 004°13'4 3.9
2014-Oct-22 10:33N 51°21' E 004°17'5 4.9
2014-Oct-22 09:33N 51°17' E 004°21'0 0.0
2014-Oct-22 08:30N 51°17' E 004°21'0 0.0
2014-Oct-22 07:33N 51°17' E 004°21'0 0.0
2014-Oct-22 06:30N 51°17' E 004°21'0 0.0
2014-Oct-22 05:33N 51°17' E 004°21'0 0.0
2014-Oct-22 04:33N 51°17' E 004°21'0 0.0
2014-Oct-22 03:30N 51°17' E 004°21'0 0.0
2014-Oct-22 02:30N 51°17' E 004°21'0 0.0
2014-Oct-22 01:33N 51°17' E 004°21'0 0.0
2014-Oct-22 00:33N 51°17' E 004°21'0 0.0
2014-Oct-21 23:33N 51°17' E 004°21'0 0.0
2014-Oct-21 22:27N 51°17' E 004°21'0 0.0
2014-Oct-21 21:33N 51°17' E 004°21'0 0.0
2014-Oct-21 20:30N 51°17' E 004°21'0 0.0
2014-Oct-21 19:33N 51°17' E 004°21'0 0.0
2014-Oct-21 18:33N 51°17' E 004°21'0 0.0
2014-Oct-21 17:33N 51°17' E 004°21'0 0.0
2014-Oct-21 16:33N 51°17' E 004°21'0 0.0
2014-Oct-21 15:33N 51°17' E 004°21'0 0.0
2014-Oct-21 14:33N 51°17' E 004°21'0 0.0
2014-Oct-21 13:33N 51°17' E 004°21'0 0.0
2014-Oct-21 12:33N 51°17' E 004°21'0 0.0
2014-Oct-21 11:33N 51°17' E 004°21'0 0.0
2014-Oct-21 10:33N 51°17' E 004°21'0 0.0
2014-Oct-21 09:33N 51°17' E 004°21'0 0.0
2014-Oct-21 08:33N 51°17' E 004°21'0 0.0
2014-Oct-21 07:33N 51°17' E 004°21'0 0.0
2014-Oct-21 06:33N 51°17' E 004°21'0 0.0
2014-Oct-21 05:33N 51°17' E 004°21'0 0.0
2014-Oct-21 04:33N 51°17' E 004°21'0 0.0
2014-Oct-21 03:30N 51°17' E 004°21'0 0.0
2014-Oct-21 02:33N 51°17' E 004°21'0 0.0
2014-Oct-21 01:30N 51°17' E 004°21'0 0.0
2014-Oct-21 00:33N 51°17' E 004°21'0 0.0
2014-Oct-20 23:33N 51°17' E 004°21'0 0.0
2014-Oct-20 22:33N 51°17' E 004°21'0 0.0
2014-Oct-20 21:30N 51°17' E 004°21'0 0.0
2014-Oct-20 20:33N 51°17' E 004°21'0 0.2
2014-Oct-20 19:30N 51°17' E 004°21'0 0.0
2014-Oct-20 18:33N 51°17' E 004°21'0 0.0
2014-Oct-20 17:33N 51°17' E 004°21'0 0.0
2014-Oct-20 16:33N 51°17' E 004°21'0 0.0
2014-Oct-20 15:33N 51°17' E 004°21'0 0.0
2014-Oct-20 14:33N 51°17' E 004°21'0 0.0
2014-Oct-20 13:33N 51°17' E 004°21'0 0.0
2014-Oct-20 12:33N 51°17' E 004°21'0 0.0
2014-Oct-20 11:33N 51°17' E 004°21'0 0.0
2014-Oct-20 10:30N 51°17' E 004°21'0 0.0
2014-Oct-20 09:33N 51°17' E 004°21'0 0.0
2014-Oct-20 08:33N 51°17' E 004°21'0 0.0
2014-Oct-20 07:33N 51°17' E 004°21'0 0.0
2014-Oct-20 06:33N 51°17' E 004°21'0 0.0
2014-Oct-20 05:34N 51°17' E 004°21'0 0.0
2014-Oct-20 04:33N 51°17' E 004°21'0 0.0
2014-Oct-20 03:34N 51°17' E 004°21'0 0.0
2014-Oct-20 02:30N 51°17' E 004°21'0 0.0
2014-Oct-20 01:33N 51°17' E 004°21'0 0.0
2014-Oct-20 00:33N 51°17' E 004°21'0 0.0
2014-Oct-19 23:33N 51°17' E 004°21'0 0.0
2014-Oct-19 22:33N 51°17' E 004°21'0 0.0
2014-Oct-19 21:33N 51°17' E 004°21'0 0.0
2014-Oct-19 20:33N 51°17' E 004°21'0 0.0
2014-Oct-19 19:33N 51°17' E 004°21'0 0.0
2014-Oct-19 18:33N 51°17' E 004°21'0 0.0
2014-Oct-19 17:33N 51°17' E 004°21'0 0.0
2014-Oct-19 16:33N 51°17' E 004°21'0 0.0
2014-Oct-19 15:33N 51°17' E 004°21'0 0.0
2014-Oct-19 14:33N 51°17' E 004°21'0 0.0
2014-Oct-19 13:33N 51°17' E 004°21'0 0.0
2014-Oct-19 12:33N 51°17' E 004°21'0 0.0
2014-Oct-19 11:30N 51°17' E 004°21'0 0.0
2014-Oct-19 10:33N 51°17' E 004°21'0 0.0
2014-Oct-19 09:33N 51°17' E 004°21'0 0.0
2014-Oct-19 08:33N 51°17' E 004°21'0 0.0
2014-Oct-19 07:33N 51°17' E 004°21'0 0.0
2014-Oct-19 06:33N 51°17' E 004°21'0 0.0
2014-Oct-19 05:33N 51°17' E 004°21'0 0.0
2014-Oct-19 04:33N 51°17' E 004°21'0 0.0
2014-Oct-19 03:33N 51°17' E 004°21'0 0.0
2014-Oct-19 02:33N 51°17' E 004°21'0 0.0
2014-Oct-19 01:33N 51°17' E 004°21'0 0.0
2014-Oct-19 00:33N 51°17' E 004°21'0 0.0
2014-Oct-18 23:33N 51°17' E 004°21'0 0.0
2014-Oct-18 22:33N 51°17' E 004°21'0 0.0
2014-Oct-18 21:33N 51°17' E 004°21'0 0.0
2014-Oct-18 20:33N 51°17' E 004°21'0 0.0
2014-Oct-18 19:33N 51°17' E 004°21'0 0.0
2014-Oct-18 18:33N 51°17' E 004°21'0 0.0
2014-Oct-18 17:33N 51°17' E 004°21'0 0.0
2014-Oct-18 16:33N 51°17' E 004°21'0 0.0
2014-Oct-18 15:33N 51°17' E 004°21'0 0.0
2014-Oct-18 14:33N 51°17' E 004°21'0 0.0
2014-Oct-18 13:30N 51°17' E 004°21'0 0.0
2014-Oct-18 12:33N 51°17' E 004°21'0 0.0
2014-Oct-18 11:33N 51°17' E 004°21'0 0.0
2014-Oct-18 10:33N 51°17' E 004°21'0 0.0
2014-Oct-18 09:33N 51°17' E 004°21'0 0.0
2014-Oct-18 08:33N 51°17' E 004°21'0 0.0
2014-Oct-18 07:33N 51°17' E 004°21'0 0.0
2014-Oct-18 06:33N 51°17' E 004°21'0 0.0
2014-Oct-18 05:33N 51°17' E 004°21'0 0.0
2014-Oct-18 04:33N 51°17' E 004°21'0 0.0
2014-Oct-18 03:27N 51°17' E 004°21'0 0.0
2014-Oct-18 02:33N 51°17' E 004°21'0 0.0
2014-Oct-18 01:33N 51°17' E 004°21'0 0.0
2014-Oct-18 00:33N 51°17' E 004°21'0 0.0
2014-Oct-17 23:33N 51°17' E 004°21'0 0.0
2014-Oct-17 22:33N 51°17' E 004°21'0 0.0
2014-Oct-17 21:33N 51°17' E 004°21'0 0.0
2014-Oct-17 20:33N 51°17' E 004°21'0 0.0
2014-Oct-17 19:33N 51°17' E 004°21'0 0.0
2014-Oct-17 18:30N 51°17' E 004°21'0 0.0
2014-Oct-17 17:33N 51°17' E 004°21'0 0.0
2014-Oct-17 16:33N 51°17' E 004°21'0 0.0
2014-Oct-17 15:33N 51°17' E 004°21'0 0.0
2014-Oct-17 14:30N 51°17' E 004°21'0 0.0
2014-Oct-17 13:30N 51°17' E 004°21'0 0.0
2014-Oct-17 12:33N 51°17' E 004°21'0 0.0
2014-Oct-17 11:30N 51°17' E 004°21'0 0.0
2014-Oct-17 10:33N 51°17' E 004°21'0 0.0
2014-Oct-17 09:33N 51°17' E 004°21'0 0.0
2014-Oct-17 08:33N 51°17' E 004°21'0 0.0
2014-Oct-17 07:33N 51°17' E 004°21'0 0.0
2014-Oct-17 06:33N 51°17' E 004°21'0 0.0
2014-Oct-17 05:33N 51°17' E 004°21'0 0.0
2014-Oct-17 04:33N 51°17' E 004°21'0 0.0
2014-Oct-17 03:33N 51°17' E 004°21'0 0.0
2014-Oct-17 02:33N 51°17' E 004°21'0 0.0
2014-Oct-17 01:33N 51°17' E 004°21'0 0.0
2014-Oct-17 00:33N 51°17' E 004°21'0 0.0
2014-Oct-16 23:33N 51°17' E 004°21'0 0.0
2014-Oct-16 22:33N 51°17' E 004°21'0 0.0
2014-Oct-16 21:33N 51°17' E 004°21'0 0.0
2014-Oct-16 20:33N 51°17' E 004°21'0 0.0
2014-Oct-16 19:33N 51°17' E 004°21'0 0.0
2014-Oct-16 18:33N 51°17' E 004°21'0 0.0
2014-Oct-16 17:33N 51°17' E 004°21'0 0.0
2014-Oct-16 16:30N 51°17' E 004°21'0 0.0
2014-Oct-16 15:33N 51°17' E 004°21'0 0.0
2014-Oct-16 14:33N 51°17' E 004°21'0 0.0
2014-Oct-16 13:33N 51°17' E 004°21'0 0.0
2014-Oct-16 12:33N 51°17' E 004°21'0 0.0
2014-Oct-16 11:33N 51°17' E 004°21'0 0.0
2014-Oct-16 10:33N 51°17' E 004°21'0 0.0
2014-Oct-16 09:33N 51°17' E 004°21'0 0.0
2014-Oct-16 08:33N 51°17' E 004°21'0 0.0
2014-Oct-16 07:33N 51°17' E 004°21'0 0.0
2014-Oct-16 06:30N 51°17' E 004°21'0 0.0
2014-Oct-16 05:33N 51°17' E 004°21'0 0.0
2014-Oct-16 04:33N 51°17' E 004°21'0 0.0
2014-Oct-16 03:33N 51°17' E 004°21'0 0.0
2014-Oct-16 02:33N 51°17' E 004°21'0 0.0
2014-Oct-16 01:33N 51°17' E 004°21'0 0.0
2014-Oct-16 00:33N 51°17' E 004°21'0 0.0
2014-Oct-15 23:33N 51°17' E 004°21'0 0.0
2014-Oct-15 22:33N 51°17' E 004°21'0 0.0
2014-Oct-15 21:33N 51°17' E 004°21'0 0.0
2014-Oct-15 20:33N 51°17' E 004°21'0 0.0
2014-Oct-15 19:33N 51°17' E 004°21'0 0.0
2014-Oct-15 18:33N 51°17' E 004°21'0 0.0
2014-Oct-15 17:30N 51°17' E 004°21'0 0.0
2014-Oct-15 16:33N 51°17' E 004°21'0 0.0
2014-Oct-15 15:30N 51°17' E 004°21'0 0.0
2014-Oct-15 14:33N 51°17' E 004°21'  

Dump ship's entire track history